Time;durP1;ratioP1;P1;durP2;ratioP2;P2;SDS_P1;SDS_P2;PMS_P1;PMS_P2;Temp;Humidity;BMP_temperature;BMP_pressure;BME280_temperature;BME280_humidity;BME280_pressure;Samples;Min_cycle;Max_cycle;Signal;HPM_P1;HPM_P2
2023/06/21 00:00:15;;;;;;;;;;;;;;;;;;1049860;28;19916;-71
2023/06/21 00:00:46;;;;;;;;;;;;;;;;;;1042821;28;19913;-71
2023/06/21 00:01:16;;;;;;;;;;;;;;;;;;1044681;28;20301;-71
2023/06/21 00:01:46;;;;;;;;;;;;;;;;;;1043145;28;19919;-71
2023/06/21 00:02:16;;;;;;;;;;;;;;;;;;1044008;28;19984;-71
2023/06/21 00:02:46;;;;;;;;;;;;;;;;;;1039821;28;20043;-71
2023/06/21 00:03:17;;;;;;;;;;;;;;;;;;1039398;28;19952;-71
2023/06/21 00:03:47;;;;;;;;;;;;;;;;;;1040820;28;19918;-71
2023/06/21 00:04:18;;;;;;;;;;;;;;;;;;1041301;28;19967;-71
2023/06/21 00:04:48;;;;;;;;;;;;;;;;;;1042249;28;19913;-71
2023/06/21 00:05:18;;;;;;;;;;;;;;;;;;1042865;28;20348;-72
2023/06/21 00:05:48;;;;;;;;;;;;;;;;;;1044814;28;19917;-71
2023/06/21 00:06:18;;;;;;;;;;;;;;;;;;1042565;28;19913;-71
2023/06/21 00:06:49;;;;;;;;;;;;;;;;;;1043262;28;20401;-71
2023/06/21 00:07:23;;;;;;;;;;;;;;;;;;1048762;28;19924;-71
2023/06/21 00:07:54;;;;;;;;;;;;;;;;;;1043221;28;19913;-71
2023/06/21 00:08:24;;;;;;;;;;;;;;;;;;1044870;28;20410;-71
2023/06/21 00:08:55;;;;;;;;;;;;;;;;;;1045210;28;19913;-71
2023/06/21 00:09:26;;;;;;;;;;;;;;;;;;1044743;28;19913;-71
2023/06/21 00:09:56;;;;;;;;;;;;;;;;;;1048336;28;19912;-72
2023/06/21 00:10:28;;;;;;;;;;;;;;;;;;1041183;28;20385;-72
2023/06/21 00:10:58;;;;;;;;;;;;;;;;;;1044603;28;19970;-71
2023/06/21 00:11:29;;;;;;;;;;;;;;;;;;1046621;28;19913;-71
2023/06/21 00:11:59;;;;;;;;;;;;;;;;;;1043039;28;20012;-71
2023/06/21 00:12:30;;;;;;;;;;;;;;;;;;1043592;28;19913;-71
2023/06/21 00:13:00;;;;;;;;;;;;;;;;;;1041600;28;19988;-71
2023/06/21 00:13:31;;;;;;;;;;;;;;;;;;1040021;28;19935;-71
2023/06/21 00:14:01;;;;;;;;;;;;;;;;;;1041570;28;19936;-71
2023/06/21 00:14:31;;;;;;;;;;;;;;;;;;1041315;28;19917;-71
2023/06/21 00:15:01;;;;;;;;;;;;;;;;;;1044233;28;20515;-71
2023/06/21 00:15:31;;;;;;;;;;;;;;;;;;1039039;28;19949;-72
2023/06/21 00:16:02;;;;;;;;;;;;;;;;;;1039164;28;19921;-71
2023/06/21 00:16:32;;;;;;;;;;;;;;;;;;1037164;28;20420;-71
2023/06/21 00:17:02;;;;;;;;;;;;;;;;;;1035182;28;19917;-72
2023/06/21 00:17:32;;;;;;;;;;;;;;;;;;1038450;28;19913;-72
2023/06/21 00:18:03;;;;;;;;;;;;;;;;;;1042890;28;19913;-71
2023/06/21 00:18:33;;;;;;;;;;;;;;;;;;1043656;28;19944;-71
2023/06/21 00:19:03;;;;;;;;;;;;;;;;;;1042567;28;19956;-71
2023/06/21 00:19:33;;;;;;;;;;;;;;;;;;1043376;28;20016;-71
2023/06/21 00:20:04;;;;;;;;;;;;;;;;;;1042633;28;19935;-71
2023/06/21 00:20:37;;;;;;;;;;;;;;;;;;1043307;28;19913;-71
2023/06/21 00:21:07;;;;;;;;;;;;;;;;;;1044090;28;19920;-72
2023/06/21 00:21:38;;;;;;;;;;;;;;;;;;1043929;28;20396;-71
2023/06/21 00:22:09;;;;;;;;;;;;;;;;;;1048530;28;19921;-71
2023/06/21 00:22:39;;;;;;;;;;;;;;;;;;1047911;28;19952;-71
2023/06/21 00:23:11;;;;;;;;;;;;;;;;;;1047756;28;19924;-71
2023/06/21 00:23:41;;;;;;;;;;;;;;;;;;1049802;28;19913;-71
2023/06/21 00:24:13;;;;;;;;;;;;;;;;;;1048694;28;19944;-71
2023/06/21 00:24:43;;;;;;;;;;;;;;;;;;1042202;28;19913;-71
2023/06/21 00:25:14;;;;;;;;;;;;;;;;;;1042571;28;19917;-72
2023/06/21 00:25:44;;;;;;;;;;;;;;;;;;1041116;28;19913;-71
2023/06/21 00:26:15;;;;;;;;;;;;;;;;;;1043220;28;19913;-71
2023/06/21 00:26:45;;;;;;;;;;;;;;;;;;1039959;28;20464;-71
2023/06/21 00:27:15;;;;;;;;;;;;;;;;;;1039368;28;20364;-71
2023/06/21 00:27:45;;;;;;;;;;;;;;;;;;1045412;28;20355;-71
2023/06/21 00:28:16;;;;;;;;;;;;;;;;;;1049521;28;20272;-71
2023/06/21 00:28:46;;;;;;;;;;;;;;;;;;1048147;28;20003;-71
2023/06/21 00:29:16;;;;;;;;;;;;;;;;;;1042415;28;20070;-71
2023/06/21 00:29:46;;;;;;;;;;;;;;;;;;1043591;28;19913;-71
2023/06/21 00:30:17;;;;;;;;;;;;;;;;;;1042216;28;19913;-71
2023/06/21 00:30:47;;;;;;;;;;;;;;;;;;1042895;28;20451;-72
2023/06/21 00:31:17;;;;;;;;;;;;;;;;;;1047029;28;20440;-71
2023/06/21 00:31:47;;;;;;;;;;;;;;;;;;1046660;28;19916;-71
2023/06/21 00:32:18;;;;;;;;;;;;;;;;;;1046322;28;19917;-71
2023/06/21 00:32:48;;;;;;;;;;;;;;;;;;1046872;28;20425;-71
2023/06/21 00:33:18;;;;;;;;;;;;;;;;;;1046916;28;19935;-72
2023/06/21 00:33:48;;;;;;;;;;;;;;;;;;1041644;28;19913;-72
2023/06/21 00:34:18;;;;;;;;;;;;;;;;;;1044284;28;19956;-71
2023/06/21 00:34:49;;;;;;;;;;;;;;;;;;1044273;28;19912;-71
2023/06/21 00:35:20;;;;;;;;;;;;;;;;;;1042029;28;19944;-72
2023/06/21 00:35:50;;;;;;;;;;;;;;;;;;1040801;28;19917;-71
2023/06/21 00:36:21;;;;;;;;;;;;;;;;;;1038326;28;19917;-71
2023/06/21 00:36:52;;;;;;;;;;;;;;;;;;1037386;28;20011;-71
2023/06/21 00:37:23;;;;;;;;;;;;;;;;;;1041587;28;19913;-71
2023/06/21 00:37:55;;;;;;;;;;;;;;;;;;1042477;28;20407;-71
2023/06/21 00:38:25;;;;;;;;;;;;;;;;;;1041695;28;19964;-71
2023/06/21 00:38:56;;;;;;;;;;;;;;;;;;1042673;28;20423;-71
2023/06/21 00:39:26;;;;;;;;;;;;;;;;;;1045456;28;19955;-71
2023/06/21 00:39:56;;;;;;;;;;;;;;;;;;1043535;28;20439;-71
2023/06/21 00:40:26;;;;;;;;;;;;;;;;;;1041814;28;20028;-72
2023/06/21 00:40:57;;;;;;;;;;;;;;;;;;1042478;28;19913;-72
2023/06/21 00:41:27;;;;;;;;;;;;;;;;;;1043875;28;19913;-72
2023/06/21 00:41:57;;;;;;;;;;;;;;;;;;1042307;28;19924;-71
2023/06/21 00:42:28;;;;;;;;;;;;;;;;;;1045252;28;20847;-71
2023/06/21 00:42:58;;;;;;;;;;;;;;;;;;1044667;28;19917;-71
2023/06/21 00:43:28;;;;;;;;;;;;;;;;;;1042410;28;19936;-72
2023/06/21 00:43:58;;;;;;;;;;;;;;;;;;1047038;28;19920;-72
2023/06/21 00:44:29;;;;;;;;;;;;;;;;;;1046043;28;19935;-71
2023/06/21 00:44:59;;;;;;;;;;;;;;;;;;1047156;28;19921;-71
2023/06/21 00:45:29;;;;;;;;;;;;;;;;;;1042694;28;19999;-71
2023/06/21 00:45:59;;;;;;;;;;;;;;;;;;1045313;28;20387;-71
2023/06/21 00:46:34;;;;;;;;;;;;;;;;;;1041574;28;19997;-71
2023/06/21 00:47:04;;;;;;;;;;;;;;;;;;1043574;28;19940;-71
2023/06/21 00:47:34;;;;;;;;;;;;;;;;;;1048099;28;20365;-71
2023/06/21 00:48:05;;;;;;;;;;;;;;;;;;1048750;28;19919;-71
2023/06/21 00:48:35;;;;;;;;;;;;;;;;;;1049390;28;20007;-71
2023/06/21 00:49:05;;;;;;;;;;;;;;;;;;1047813;28;20031;-71
2023/06/21 00:49:36;;;;;;;;;;;;;;;;;;1049458;28;20443;-71
2023/06/21 00:50:06;;;;;;;;;;;;;;;;;;1045546;28;19980;-71
2023/06/21 00:50:38;;;;;;;;;;;;;;;;;;1045569;28;19972;-71
2023/06/21 00:51:13;;;;;;;;;;;;;;;;;;1045825;28;19920;-71
2023/06/21 00:51:44;;;;;;;;;;;;;;;;;;1046129;28;20368;-71
2023/06/21 00:52:14;;;;;;;;;;;;;;;;;;1040542;28;19967;-71
2023/06/21 00:52:45;;;;;;;;;;;;;;;;;;1042580;28;19983;-71
2023/06/21 00:53:15;;;;;;;;;;;;;;;;;;1043028;28;19913;-71
2023/06/21 00:53:45;;;;;;;;;;;;;;;;;;1041922;28;19913;-71
2023/06/21 00:54:16;;;;;;;;;;;;;;;;;;1041405;28;19975;-71
2023/06/21 00:54:46;;;;;;;;;;;;;;;;;;1040880;28;19917;-71
2023/06/21 00:55:19;;;;;;;;;;;;;;;;;;1040134;28;19937;-72
2023/06/21 00:55:49;;;;;;;;;;;;;;;;;;1042528;28;19940;-72
2023/06/21 00:56:19;;;;;;;;;;;;;;;;;;1042276;28;19970;-71
2023/06/21 00:56:49;;;;;;;;;;;;;;;;;;1036211;28;20353;-71
2023/06/21 00:57:20;;;;;;;;;;;;;;;;;;1036681;28;19960;-71
2023/06/21 00:57:50;;;;;;;;;;;;;;;;;;1038143;28;20036;-71
2023/06/21 00:58:20;;;;;;;;;;;;;;;;;;1041879;28;19917;-72
2023/06/21 00:58:50;;;;;;;;;;;;;;;;;;1042224;28;20377;-72
2023/06/21 00:59:21;;;;;;;;;;;;;;;;;;1044177;28;20324;-72
2023/06/21 00:59:53;;;;;;;;;;;;;;;;;;1043036;28;19920;-71
2023/06/21 01:00:25;;;;;;;;;;;;;;;;;;1042201;28;19912;-71
2023/06/21 01:00:55;;;;;;;;;;;;;;;;;;1044094;28;19938;-72
2023/06/21 01:01:26;;;;;;;;;;;;;;;;;;1044132;28;20351;-71
2023/06/21 01:01:56;;;;;;;;;;;;;;;;;;1047165;28;19913;-72
2023/06/21 01:02:27;;;;;;;;;;;;;;;;;;1044327;28;19927;-71
2023/06/21 01:02:57;;;;;;;;;;;;;;;;;;1045491;28;20195;-72
2023/06/21 01:03:27;;;;;;;;;;;;;;;;;;1049445;28;19912;-72
2023/06/21 01:03:58;;;;;;;;;;;;;;;;;;1042019;28;20377;-72
2023/06/21 01:04:28;;;;;;;;;;;;;;;;;;1042173;28;19952;-72
2023/06/21 01:04:58;;;;;;;;;;;;;;;;;;1042799;28;19965;-72
2023/06/21 01:05:33;;;;;;;;;;;;;;;;;;1042075;28;19913;-72
2023/06/21 01:06:03;;;;;;;;;;;;;;;;;;1041710;28;19941;-72
2023/06/21 01:06:34;;;;;;;;;;;;;;;;;;1041597;28;19913;-71
2023/06/21 01:07:05;;;;;;;;;;;;;;;;;;1041899;28;19913;-71
2023/06/21 01:07:35;;;;;;;;;;;;;;;;;;1045617;28;19917;-71
2023/06/21 01:08:05;;;;;;;;;;;;;;;;;;1045932;28;19962;-71
2023/06/21 01:08:35;;;;;;;;;;;;;;;;;;1043495;28;19952;-71
2023/06/21 01:09:06;;;;;;;;;;;;;;;;;;1042292;28;19913;-71
2023/06/21 01:09:37;;;;;;;;;;;;;;;;;;1042258;28;19913;-71
2023/06/21 01:10:08;;;;;;;;;;;;;;;;;;1046664;28;19919;-71
2023/06/21 01:10:38;;;;;;;;;;;;;;;;;;1048083;28;19963;-71
2023/06/21 01:11:09;;;;;;;;;;;;;;;;;;1048803;28;19913;-71
2023/06/21 01:11:39;;;;;;;;;;;;;;;;;;1041909;28;19956;-71
2023/06/21 01:12:10;;;;;;;;;;;;;;;;;;1041783;28;19917;-71
2023/06/21 01:12:40;;;;;;;;;;;;;;;;;;1040011;28;19917;-71
2023/06/21 01:13:10;;;;;;;;;;;;;;;;;;1038100;28;19914;-71
2023/06/21 01:13:41;;;;;;;;;;;;;;;;;;1038077;28;19944;-71
2023/06/21 01:14:11;;;;;;;;;;;;;;;;;;1040840;28;20008;-71
2023/06/21 01:14:41;;;;;;;;;;;;;;;;;;1036493;28;19949;-71
2023/06/21 01:15:12;;;;;;;;;;;;;;;;;;1034557;28;19921;-71
2023/06/21 01:15:42;;;;;;;;;;;;;;;;;;1039609;28;19914;-71
2023/06/21 01:16:12;;;;;;;;;;;;;;;;;;1039172;28;19920;-71
2023/06/21 01:16:42;;;;;;;;;;;;;;;;;;1034695;28;19913;-71
2023/06/21 01:17:13;;;;;;;;;;;;;;;;;;1039324;28;19918;-71
2023/06/21 01:17:43;;;;;;;;;;;;;;;;;;1043860;28;19917;-71
2023/06/21 01:18:13;;;;;;;;;;;;;;;;;;1043377;28;19913;-71
2023/06/21 01:18:46;;;;;;;;;;;;;;;;;;1042400;28;19913;-71
2023/06/21 01:19:17;;;;;;;;;;;;;;;;;;1042864;28;19940;-71
2023/06/21 01:19:47;;;;;;;;;;;;;;;;;;1042570;28;20436;-71
2023/06/21 01:20:23;;;;;;;;;;;;;;;;;;1041073;28;20085;-72
2023/06/21 01:20:54;;;;;;;;;;;;;;;;;;1037533;28;19937;-72
2023/06/21 01:21:24;;;;;;;;;;;;;;;;;;1040754;28;19913;-71
2023/06/21 01:21:54;;;;;;;;;;;;;;;;;;1042427;28;19928;-71
2023/06/21 01:22:24;;;;;;;;;;;;;;;;;;1039040;28;19913;-72
2023/06/21 01:22:55;;;;;;;;;;;;;;;;;;1042060;28;19917;-72
2023/06/21 01:23:25;;;;;;;;;;;;;;;;;;1044287;28;19920;-71
2023/06/21 01:23:55;;;;;;;;;;;;;;;;;;1043073;28;19913;-72
2023/06/21 01:24:25;;;;;;;;;;;;;;;;;;1044875;28;20322;-72
2023/06/21 01:24:56;;;;;;;;;;;;;;;;;;1043866;28;19913;-71
2023/06/21 01:25:27;;;;;;;;;;;;;;;;;;1039065;28;19928;-72
2023/06/21 01:25:58;;;;;;;;;;;;;;;;;;1046282;28;20008;-71
2023/06/21 01:26:29;;;;;;;;;;;;;;;;;;1047428;28;19923;-72
2023/06/21 01:26:59;;;;;;;;;;;;;;;;;;1046598;28;20334;-72
2023/06/21 01:27:30;;;;;;;;;;;;;;;;;;1043102;28;19967;-72
2023/06/21 01:28:00;;;;;;;;;;;;;;;;;;1043362;28;19917;-72
2023/06/21 01:28:31;;;;;;;;;;;;;;;;;;1043453;28;19924;-72
2023/06/21 01:29:02;;;;;;;;;;;;;;;;;;1044361;28;19962;-72
2023/06/21 01:29:33;;;;;;;;;;;;;;;;;;1046686;28;19913;-72
2023/06/21 01:30:03;;;;;;;;;;;;;;;;;;1048496;28;19924;-75
2023/06/21 01:30:33;;;;;;;;;;;;;;;;;;1047563;28;19920;-72
2023/06/21 01:31:03;;;;;;;;;;;;;;;;;;1046554;28;20368;-73
2023/06/21 01:31:34;;;;;;;;;;;;;;;;;;1047242;28;20630;-71
2023/06/21 01:32:04;;;;;;;;;;;;;;;;;;1045933;28;19999;-72
2023/06/21 01:32:34;;;;;;;;;;;;;;;;;;1043937;28;19920;-72
2023/06/21 01:33:07;;;;;;;;;;;;;;;;;;1046692;28;20269;-72
2023/06/21 01:33:37;;;;;;;;;;;;;;;;;;1046404;28;19917;-72
2023/06/21 01:34:08;;;;;;;;;;;;;;;;;;1044454;28;19928;-72
2023/06/21 01:34:38;;;;;;;;;;;;;;;;;;1038832;28;20310;-71
2023/06/21 01:35:09;;;;;;;;;;;;;;;;;;1042614;28;19919;-71
2023/06/21 01:35:41;;;;;;;;;;;;;;;;;;1038499;28;19936;-71
2023/06/21 01:36:11;;;;;;;;;;;;;;;;;;1037138;28;19940;-71
2023/06/21 01:36:41;;;;;;;;;;;;;;;;;;1041673;28;19935;-71
2023/06/21 01:37:11;;;;;;;;;;;;;;;;;;1038071;28;19989;-71
2023/06/21 01:37:42;;;;;;;;;;;;;;;;;;1039575;28;20004;-72
2023/06/21 01:38:12;;;;;;;;;;;;;;;;;;1037879;28;20000;-71
2023/06/21 01:38:44;;;;;;;;;;;;;;;;;;1038836;28;19920;-71
2023/06/21 01:39:15;;;;;;;;;;;;;;;;;;1041576;28;20075;-71
2023/06/21 01:39:45;;;;;;;;;;;;;;;;;;1045182;28;19912;-71
2023/06/21 01:40:15;;;;;;;;;;;;;;;;;;1039890;28;20019;-71
2023/06/21 01:40:46;;;;;;;;;;;;;;;;;;1040996;28;19924;-71
2023/06/21 01:41:16;;;;;;;;;;;;;;;;;;1042226;28;20012;-71
2023/06/21 01:41:46;;;;;;;;;;;;;;;;;;1040097;28;20003;-71
2023/06/21 01:42:16;;;;;;;;;;;;;;;;;;1041457;28;19939;-71
2023/06/21 01:42:48;;;;;;;;;;;;;;;;;;1038196;28;19918;-71
2023/06/21 01:43:18;;;;;;;;;;;;;;;;;;1038176;28;20277;-71
2023/06/21 01:43:49;;;;;;;;;;;;;;;;;;1036799;28;19952;-71
2023/06/21 01:44:19;;;;;;;;;;;;;;;;;;1037187;28;19925;-71
2023/06/21 01:44:50;;;;;;;;;;;;;;;;;;1038492;28;19925;-72
2023/06/21 01:45:23;;;;;;;;;;;;;;;;;;1040241;28;19925;-72
2023/06/21 01:45:53;;;;;;;;;;;;;;;;;;1036952;28;19924;-71
2023/06/21 01:46:23;;;;;;;;;;;;;;;;;;1037723;28;20020;-71
2023/06/21 01:46:53;;;;;;;;;;;;;;;;;;1038994;28;19913;-71
2023/06/21 01:47:24;;;;;;;;;;;;;;;;;;1038823;28;20036;-71
2023/06/21 01:47:54;;;;;;;;;;;;;;;;;;1042034;28;19917;-71
2023/06/21 01:48:24;;;;;;;;;;;;;;;;;;1046573;28;20407;-71
2023/06/21 01:48:55;;;;;;;;;;;;;;;;;;1046537;28;19921;-72
2023/06/21 01:49:25;;;;;;;;;;;;;;;;;;1047855;28;19919;-72
2023/06/21 01:49:55;;;;;;;;;;;;;;;;;;1041476;28;19921;-72
2023/06/21 01:50:25;;;;;;;;;;;;;;;;;;1040653;28;20368;-72
2023/06/21 01:50:55;;;;;;;;;;;;;;;;;;1040538;28;19996;-72
2023/06/21 01:51:26;;;;;;;;;;;;;;;;;;1040512;28;19929;-72
2023/06/21 01:51:56;;;;;;;;;;;;;;;;;;1042255;28;19913;-72
2023/06/21 01:52:26;;;;;;;;;;;;;;;;;;1045556;28;19951;-72
2023/06/21 01:52:56;;;;;;;;;;;;;;;;;;1046689;28;19962;-71
2023/06/21 01:53:27;;;;;;;;;;;;;;;;;;1046833;28;19962;-72
2023/06/21 01:53:57;;;;;;;;;;;;;;;;;;1046589;28;19917;-72
2023/06/21 01:54:27;;;;;;;;;;;;;;;;;;1040781;28;19984;-72
2023/06/21 01:54:57;;;;;;;;;;;;;;;;;;1043000;28;19917;-72
2023/06/21 01:55:27;;;;;;;;;;;;;;;;;;1042377;28;20016;-72
2023/06/21 01:55:58;;;;;;;;;;;;;;;;;;1041801;28;19957;-72
2023/06/21 01:56:28;;;;;;;;;;;;;;;;;;1047428;28;19929;-72
2023/06/21 01:56:59;;;;;;;;;;;;;;;;;;1040600;28;19958;-72
2023/06/21 01:57:29;;;;;;;;;;;;;;;;;;1040878;28;19966;-72
2023/06/21 01:57:59;;;;;;;;;;;;;;;;;;1040914;28;20039;-72
2023/06/21 01:58:31;;;;;;;;;;;;;;;;;;1041776;28;19917;-72
2023/06/21 01:59:01;;;;;;;;;;;;;;;;;;1040309;28;20377;-72
2023/06/21 01:59:31;;;;;;;;;;;;;;;;;;1036776;28;19917;-72
2023/06/21 02:00:02;;;;;;;;;;;;;;;;;;1034925;28;20388;-72
2023/06/21 02:00:32;;;;;;;;;;;;;;;;;;1036903;28;19917;-72
2023/06/21 02:01:03;;;;;;;;;;;;;;;;;;1037890;28;19921;-72
2023/06/21 02:01:33;;;;;;;;;;;;;;;;;;1039798;28;19917;-72
2023/06/21 02:02:03;;;;;;;;;;;;;;;;;;1047647;28;20019;-75
2023/06/21 02:02:33;;;;;;;;;;;;;;;;;;1043000;28;19913;-75
2023/06/21 02:03:04;;;;;;;;;;;;;;;;;;1040421;28;19980;-74
2023/06/21 02:03:34;;;;;;;;;;;;;;;;;;1040872;28;19920;-75
2023/06/21 02:04:04;;;;;;;;;;;;;;;;;;1040092;28;19913;-72
2023/06/21 02:04:35;;;;;;;;;;;;;;;;;;1041317;28;20307;-72
2023/06/21 02:05:05;;;;;;;;;;;;;;;;;;1041325;28;19917;-72
2023/06/21 02:05:35;;;;;;;;;;;;;;;;;;1045596;28;19919;-73
2023/06/21 02:06:06;;;;;;;;;;;;;;;;;;1045796;28;20023;-73
2023/06/21 02:06:39;;;;;;;;;;;;;;;;;;1044214;28;19977;-73
2023/06/21 02:07:13;;;;;;;;;;;;;;;;;;1046219;28;19962;-73
2023/06/21 02:07:44;;;;;;;;;;;;;;;;;;1044995;28;19920;-74
2023/06/21 02:08:15;;;;;;;;;;;;;;;;;;1045046;28;20062;-74
2023/06/21 02:08:46;;;;;;;;;;;;;;;;;;1041066;28;19913;-73
2023/06/21 02:09:16;;;;;;;;;;;;;;;;;;1043422;28;19944;-73
2023/06/21 02:09:46;;;;;;;;;;;;;;;;;;1041502;28;19976;-73
2023/06/21 02:10:20;;;;;;;;;;;;;;;;;;1040100;28;20310;-73
2023/06/21 02:10:50;;;;;;;;;;;;;;;;;;1045059;28;19920;-73
2023/06/21 02:11:22;;;;;;;;;;;;;;;;;;1041950;28;20340;-73
2023/06/21 02:11:52;;;;;;;;;;;;;;;;;;1041293;28;19987;-72
2023/06/21 02:12:22;;;;;;;;;;;;;;;;;;1040916;28;19917;-73
2023/06/21 02:12:53;;;;;;;;;;;;;;;;;;1040451;28;19916;-73
2023/06/21 02:13:26;;;;;;;;;;;;;;;;;;1040925;28;20403;-73
2023/06/21 02:13:56;;;;;;;;;;;;;;;;;;1038779;28;20004;-72
2023/06/21 02:14:27;;;;;;;;;;;;;;;;;;1041323;28;19912;-72
2023/06/21 02:14:57;;;;;;;;;;;;;;;;;;1042159;28;19948;-73
2023/06/21 02:15:28;;;;;;;;;;;;;;;;;;1035819;28;19921;-72
2023/06/21 02:15:58;;;;;;;;;;;;;;;;;;1036263;28;19917;-72
2023/06/21 02:16:28;;;;;;;;;;;;;;;;;;1040554;28;19923;-72
2023/06/21 02:16:59;;;;;;;;;;;;;;;;;;1037916;28;19914;-72
2023/06/21 02:17:29;;;;;;;;;;;;;;;;;;1040315;28;19919;-72
2023/06/21 02:18:01;;;;;;;;;;;;;;;;;;1036781;28;19940;-72
2023/06/21 02:18:31;;;;;;;;;;;;;;;;;;1035119;28;20387;-72
2023/06/21 02:19:01;;;;;;;;;;;;;;;;;;1041331;28;19913;-73
2023/06/21 02:19:31;;;;;;;;;;;;;;;;;;1039910;28;19914;-72
2023/06/21 02:20:03;;;;;;;;;;;;;;;;;;1042511;28;19939;-72
2023/06/21 02:20:33;;;;;;;;;;;;;;;;;;1040214;28;19921;-72
2023/06/21 02:21:03;;;;;;;;;;;;;;;;;;1042456;28;19913;-72
2023/06/21 02:21:33;;;;;;;;;;;;;;;;;;1039791;28;19921;-72
2023/06/21 02:22:04;;;;;;;;;;;;;;;;;;1040896;28;20305;-73
2023/06/21 02:22:34;;;;;;;;;;;;;;;;;;1045329;28;19917;-72
2023/06/21 02:23:04;;;;;;;;;;;;;;;;;;1041142;28;19928;-73
2023/06/21 02:23:34;;;;;;;;;;;;;;;;;;1039293;28;20431;-72
2023/06/21 02:24:05;;;;;;;;;;;;;;;;;;1040220;28;20351;-72
2023/06/21 02:24:35;;;;;;;;;;;;;;;;;;1037563;28;19936;-74
2023/06/21 02:25:05;;;;;;;;;;;;;;;;;;1041989;28;19951;-73
2023/06/21 02:25:36;;;;;;;;;;;;;;;;;;1041352;28;19970;-73
2023/06/21 02:26:07;;;;;;;;;;;;;;;;;;1040184;28;19913;-73
2023/06/21 02:26:37;;;;;;;;;;;;;;;;;;1041359;28;19987;-75
2023/06/21 02:27:08;;;;;;;;;;;;;;;;;;1036894;28;19920;-73
2023/06/21 02:27:38;;;;;;;;;;;;;;;;;;1039566;28;19923;-73
2023/06/21 02:28:09;;;;;;;;;;;;;;;;;;1032726;28;19920;-74
2023/06/21 02:28:39;;;;;;;;;;;;;;;;;;1034496;28;19952;-73
2023/06/21 02:29:09;;;;;;;;;;;;;;;;;;1035238;28;19948;-73
2023/06/21 02:29:39;;;;;;;;;;;;;;;;;;1039399;28;19913;-74
2023/06/21 02:30:10;;;;;;;;;;;;;;;;;;1040242;28;19948;-73
2023/06/21 02:30:40;;;;;;;;;;;;;;;;;;1041392;28;20007;-72
2023/06/21 02:31:10;;;;;;;;;;;;;;;;;;1040806;28;19913;-73
2023/06/21 02:31:40;;;;;;;;;;;;;;;;;;1040438;28;20483;-73
2023/06/21 02:32:11;;;;;;;;;;;;;;;;;;1041282;28;19912;-72
2023/06/21 02:32:41;;;;;;;;;;;;;;;;;;1039893;28;20008;-72
2023/06/21 02:33:11;;;;;;;;;;;;;;;;;;1039703;28;19909;-72
2023/06/21 02:33:42;;;;;;;;;;;;;;;;;;1039785;28;19966;-73
2023/06/21 02:34:12;;;;;;;;;;;;;;;;;;1035712;28;20395;-73
2023/06/21 02:34:42;;;;;;;;;;;;;;;;;;1036405;28;19914;-73
2023/06/21 02:35:12;;;;;;;;;;;;;;;;;;1037131;28;19914;-72
2023/06/21 02:35:43;;;;;;;;;;;;;;;;;;1041893;28;20012;-72
2023/06/21 02:36:13;;;;;;;;;;;;;;;;;;1044949;28;19912;-72
2023/06/21 02:36:52;;;;;;;;;;;;;;;;;;1044795;28;19924;-72
2023/06/21 02:37:23;;;;;;;;;;;;;;;;;;1041373;28;20284;-72
2023/06/21 02:37:53;;;;;;;;;;;;;;;;;;1039895;28;20941;-72
2023/06/21 02:38:25;;;;;;;;;;;;;;;;;;1035670;28;19928;-72
2023/06/21 02:38:55;;;;;;;;;;;;;;;;;;1036877;28;19956;-72
2023/06/21 02:39:25;;;;;;;;;;;;;;;;;;1039248;28;20384;-73
2023/06/21 02:39:56;;;;;;;;;;;;;;;;;;1037587;28;20011;-71
2023/06/21 02:40:26;;;;;;;;;;;;;;;;;;1041066;28;19913;-72
2023/06/21 02:40:56;;;;;;;;;;;;;;;;;;1039928;28;20460;-72
2023/06/21 02:41:26;;;;;;;;;;;;;;;;;;1040654;28;19921;-77
2023/06/21 02:41:57;;;;;;;;;;;;;;;;;;1044493;28;20269;-76
2023/06/21 02:42:27;;;;;;;;;;;;;;;;;;1044194;28;19912;-72
2023/06/21 02:42:57;;;;;;;;;;;;;;;;;;1041398;28;19917;-72
2023/06/21 02:43:28;;;;;;;;;;;;;;;;;;1040913;28;19924;-73
2023/06/21 02:43:58;;;;;;;;;;;;;;;;;;1042537;28;19986;-73
2023/06/21 02:44:28;;;;;;;;;;;;;;;;;;1038876;28;20043;-73
2023/06/21 02:44:58;;;;;;;;;;;;;;;;;;1044619;28;19913;-73
2023/06/21 02:45:29;;;;;;;;;;;;;;;;;;1045492;28;19974;-73
2023/06/21 02:46:00;;;;;;;;;;;;;;;;;;1041461;28;19917;-73
2023/06/21 02:46:30;;;;;;;;;;;;;;;;;;1040181;28;19917;-73
2023/06/21 02:47:01;;;;;;;;;;;;;;;;;;1040491;28;20017;-73
2023/06/21 02:47:31;;;;;;;;;;;;;;;;;;1038931;28;19913;-73
2023/06/21 02:48:01;;;;;;;;;;;;;;;;;;1045145;28;20022;-72
2023/06/21 02:48:31;;;;;;;;;;;;;;;;;;1044850;28;20292;-72
2023/06/21 02:49:02;;;;;;;;;;;;;;;;;;1040027;28;19919;-73
2023/06/21 02:49:36;;;;;;;;;;;;;;;;;;1039022;28;19921;-73
2023/06/21 02:50:06;;;;;;;;;;;;;;;;;;1037282;28;19920;-73
2023/06/21 02:50:36;;;;;;;;;;;;;;;;;;1037549;28;20000;-73
2023/06/21 02:51:07;;;;;;;;;;;;;;;;;;1037323;28;19920;-74
2023/06/21 02:51:37;;;;;;;;;;;;;;;;;;1037873;28;19944;-73
2023/06/21 02:52:08;;;;;;;;;;;;;;;;;;1042749;28;19923;-72
2023/06/21 02:52:38;;;;;;;;;;;;;;;;;;1038959;28;20011;-73
2023/06/21 02:53:08;;;;;;;;;;;;;;;;;;1045673;28;19920;-72
2023/06/21 02:53:38;;;;;;;;;;;;;;;;;;1045464;28;19913;-72
2023/06/21 02:54:09;;;;;;;;;;;;;;;;;;1046758;28;19958;-72
2023/06/21 02:54:39;;;;;;;;;;;;;;;;;;1044915;28;19920;-72
2023/06/21 02:55:09;;;;;;;;;;;;;;;;;;1045513;28;20307;-73
2023/06/21 02:55:39;;;;;;;;;;;;;;;;;;1044539;28;19912;-72
2023/06/21 02:56:10;;;;;;;;;;;;;;;;;;1045273;28;19916;-73
2023/06/21 02:56:42;;;;;;;;;;;;;;;;;;1040878;28;19913;-76
2023/06/21 02:57:13;;;;;;;;;;;;;;;;;;1041203;28;20284;-77
2023/06/21 02:57:44;;;;;;;;;;;;;;;;;;1036798;28;19960;-77
2023/06/21 02:58:14;;;;;;;;;;;;;;;;;;1038013;28;19924;-76
2023/06/21 02:58:45;;;;;;;;;;;;;;;;;;1038494;28;20011;-75
2023/06/21 02:59:15;;;;;;;;;;;;;;;;;;1040778;28;19963;-73
2023/06/21 02:59:45;;;;;;;;;;;;;;;;;;1042625;28;19940;-72
2023/06/21 03:00:31;;;;;;;;;;;;;;;;;;1044026;28;19920;-74
2023/06/21 03:01:02;;;;;;;;;;;;;;;;;;1045180;28;20394;-73
2023/06/21 03:01:32;;;;;;;;;;;;;;;;;;1044559;28;19924;-74
2023/06/21 03:02:03;;;;;;;;;;;;;;;;;;1046108;28;20435;-73
2023/06/21 03:02:33;;;;;;;;;;;;;;;;;;1046012;28;20528;-74
2023/06/21 03:03:04;;;;;;;;;;;;;;;;;;1043938;28;20371;-73
2023/06/21 03:03:34;;;;;;;;;;;;;;;;;;1043178;28;19940;-74
2023/06/21 03:04:05;;;;;;;;;;;;;;;;;;1043329;28;19924;-73
2023/06/21 03:04:35;;;;;;;;;;;;;;;;;;1046480;28;19913;-75
2023/06/21 03:05:08;;;;;;;;;;;;;;;;;;1048757;28;19912;-76
2023/06/21 03:05:38;;;;;;;;;;;;;;;;;;1039067;28;20015;-75
2023/06/21 03:06:09;;;;;;;;;;;;;;;;;;1037708;28;19999;-76
2023/06/21 03:06:39;;;;;;;;;;;;;;;;;;1037708;28;19913;-74
2023/06/21 03:07:09;;;;;;;;;;;;;;;;;;1037535;28;19917;-75
2023/06/21 03:07:44;;;;;;;;;;;;;;;;;;1041769;28;20394;-80
2023/06/21 03:08:16;;;;;;;;;;;;;;;;;;1041636;28;19917;-80
2023/06/21 03:08:46;;;;;;;;;;;;;;;;;;1041700;28;20372;-78
2023/06/21 03:09:16;;;;;;;;;;;;;;;;;;1038344;28;20445;-78
2023/06/21 03:09:47;;;;;;;;;;;;;;;;;;1035329;28;20508;-77
2023/06/21 03:10:19;;;;;;;;;;;;;;;;;;1037237;28;19956;-77
2023/06/21 03:10:49;;;;;;;;;;;;;;;;;;1034108;28;19937;-79
2023/06/21 03:11:20;;;;;;;;;;;;;;;;;;1038888;28;20478;-78
2023/06/21 03:11:50;;;;;;;;;;;;;;;;;;1039801;28;19917;-83
2023/06/21 03:12:20;;;;;;;;;;;;;;;;;;1041251;28;19921;-77
2023/06/21 03:12:50;;;;;;;;;;;;;;;;;;1046102;28;19924;-76
2023/06/21 03:13:21;;;;;;;;;;;;;;;;;;1044373;28;20302;-74
2023/06/21 03:13:51;;;;;;;;;;;;;;;;;;1046453;28;19977;-76
2023/06/21 03:14:21;;;;;;;;;;;;;;;;;;1039245;28;19913;-76
2023/06/21 03:14:51;;;;;;;;;;;;;;;;;;1041944;28;19964;-76
2023/06/21 03:15:22;;;;;;;;;;;;;;;;;;1041977;28;20423;-75
2023/06/21 03:15:52;;;;;;;;;;;;;;;;;;1037437;28;20323;-75
2023/06/21 03:16:23;;;;;;;;;;;;;;;;;;1037363;28;19916;-75
2023/06/21 03:16:53;;;;;;;;;;;;;;;;;;1035778;28;19964;-78
2023/06/21 03:17:23;;;;;;;;;;;;;;;;;;1038639;28;19918;-72
2023/06/21 03:17:54;;;;;;;;;;;;;;;;;;1041665;28;19935;-74
2023/06/21 03:18:24;;;;;;;;;;;;;;;;;;1041251;28;19913;-76
2023/06/21 03:18:54;;;;;;;;;;;;;;;;;;1040576;28;19909;-76
2023/06/21 03:19:24;;;;;;;;;;;;;;;;;;1040294;28;19925;-76
2023/06/21 03:19:55;;;;;;;;;;;;;;;;;;1037533;28;20456;-76
2023/06/21 03:20:26;;;;;;;;;;;;;;;;;;1037528;28;19913;-75
2023/06/21 03:21:00;;;;;;;;;;;;;;;;;;1036548;28;19924;-76
2023/06/21 03:21:31;;;;;;;;;;;;;;;;;;1037969;28;20371;-77
2023/06/21 03:22:02;;;;;;;;;;;;;;;;;;1040904;28;21133;-74
2023/06/21 03:22:33;;;;;;;;;;;;;;;;;;1041625;28;19920;-73
2023/06/21 03:23:03;;;;;;;;;;;;;;;;;;1044573;28;20292;-73
2023/06/21 03:23:33;;;;;;;;;;;;;;;;;;1045086;28;20106;-74
2023/06/21 03:24:04;;;;;;;;;;;;;;;;;;1040671;28;19913;-75
2023/06/21 03:24:34;;;;;;;;;;;;;;;;;;1038816;28;19940;-73
2023/06/21 03:25:04;;;;;;;;;;;;;;;;;;1039692;28;20581;-76
2023/06/21 03:25:34;;;;;;;;;;;;;;;;;;1036618;28;19917;-76
2023/06/21 03:26:05;;;;;;;;;;;;;;;;;;1038684;28;19948;-77
2023/06/21 03:26:35;;;;;;;;;;;;;;;;;;1037916;28;20106;-76
2023/06/21 03:27:05;;;;;;;;;;;;;;;;;;1038048;28;19949;-77
2023/06/21 03:27:35;;;;;;;;;;;;;;;;;;1040299;28;19920;-76
2023/06/21 03:28:06;;;;;;;;;;;;;;;;;;1044539;28;19920;-76
2023/06/21 03:28:36;;;;;;;;;;;;;;;;;;1039641;28;20110;-76
2023/06/21 03:29:06;;;;;;;;;;;;;;;;;;1041391;28;19980;-76